sensor_id;sensor_type;location;lat;lon;timestamp;pressure;altitude;pressure_sealevel;temperature;humidity
51876;BME280;34054;52.100;5.116;2022-11-15T00:00:19;100605.75;;;7.69;96.63
51876;BME280;34054;52.100;5.116;2022-11-15T00:00:51;100607.22;;;7.60;96.82
51876;BME280;34054;52.100;5.116;2022-11-15T00:01:23;100598.22;;;7.54;96.86
51876;BME280;34054;52.100;5.116;2022-11-15T00:01:56;100592.31;;;7.58;97.32
51876;BME280;34054;52.100;5.116;2022-11-15T00:02:27;100606.59;;;7.70;96.98
51876;BME280;34054;52.100;5.116;2022-11-15T00:02:59;100594.81;;;7.47;97.16
51876;BME280;34054;52.100;5.116;2022-11-15T00:03:31;100610.91;;;7.54;97.18
51876;BME280;34054;52.100;5.116;2022-11-15T00:04:03;100611.88;;;7.48;97.44
51876;BME280;34054;52.100;5.116;2022-11-15T00:04:35;100594.78;;;7.30;97.82
51876;BME280;34054;52.100;5.116;2022-11-15T00:05:08;100611.28;;;7.46;98.18
51876;BME280;34054;52.100;5.116;2022-11-15T00:05:40;100593.09;;;7.41;98.19
51876;BME280;34054;52.100;5.116;2022-11-15T00:06:12;100603.25;;;7.51;98.16
51876;BME280;34054;52.100;5.116;2022-11-15T00:06:45;100611.03;;;7.47;98.27
51876;BME280;34054;52.100;5.116;2022-11-15T00:07:16;100615.56;;;7.42;98.47
51876;BME280;34054;52.100;5.116;2022-11-15T00:07:48;100609.69;;;7.33;98.58
51876;BME280;34054;52.100;5.116;2022-11-15T00:08:19;100593.19;;;7.17;98.96
51876;BME280;34054;52.100;5.116;2022-11-15T00:08:52;100609.16;;;7.19;99.26
51876;BME280;34054;52.100;5.116;2022-11-15T00:09:24;100608.69;;;7.22;99.66
51876;BME280;34054;52.100;5.116;2022-11-15T00:09:55;100599.06;;;7.14;99.67
51876;BME280;34054;52.100;5.116;2022-11-15T00:10:28;100618.22;;;7.13;100.00
51876;BME280;34054;52.100;5.116;2022-11-15T00:11:01;100603.53;;;7.08;100.00
51876;BME280;34054;52.100;5.116;2022-11-15T00:11:34;100611.50;;;7.15;100.00
51876;BME280;34054;52.100;5.116;2022-11-15T00:12:06;100596.63;;;7.13;100.00
51876;BME280;34054;52.100;5.116;2022-11-15T00:12:39;100610.66;;;7.27;100.00
51876;BME280;34054;52.100;5.116;2022-11-15T00:13:12;100612.47;;;7.09;100.00
51876;BME280;34054;52.100;5.116;2022-11-15T00:13:45;100613.06;;;7.11;100.00
51876;BME280;34054;52.100;5.116;2022-11-15T00:14:17;100609.78;;;7.09;100.00
51876;BME280;34054;52.100;5.116;2022-11-15T00:14:48;100611.25;;;7.17;100.00
51876;BME280;34054;52.100;5.116;2022-11-15T00:15:21;100612.09;;;7.17;100.00
51876;BME280;34054;52.100;5.116;2022-11-15T00:15:56;100607.78;;;7.04;100.00
51876;BME280;34054;52.100;5.116;2022-11-15T00:16:28;100621.66;;;6.96;100.00
51876;BME280;34054;52.100;5.116;2022-11-15T00:17:01;100612.00;;;7.00;100.00
51876;BME280;34054;52.100;5.116;2022-11-15T00:17:32;100606.75;;;7.05;100.00
51876;BME280;34054;52.100;5.116;2022-11-15T00:18:05;100606.50;;;7.07;100.00
51876;BME280;34054;52.100;5.116;2022-11-15T00:18:38;100602.66;;;7.03;100.00
51876;BME280;34054;52.100;5.116;2022-11-15T00:19:10;100593.69;;;7.02;100.00
51876;BME280;34054;52.100;5.116;2022-11-15T00:19:42;100609.09;;;7.02;100.00
51876;BME280;34054;52.100;5.116;2022-11-15T00:20:14;100580.16;;;6.85;100.00
51876;BME280;34054;52.100;5.116;2022-11-15T00:20:46;100617.16;;;7.14;100.00
51876;BME280;34054;52.100;5.116;2022-11-15T00:21:18;100610.13;;;7.13;100.00
51876;BME280;34054;52.100;5.116;2022-11-15T00:21:50;100615.63;;;7.18;100.00
51876;BME280;34054;52.100;5.116;2022-11-15T00:22:22;100613.88;;;7.12;100.00
51876;BME280;34054;52.100;5.116;2022-11-15T00:22:53;100616.91;;;7.15;100.00
51876;BME280;34054;52.100;5.116;2022-11-15T00:23:25;100610.72;;;7.15;100.00
51876;BME280;34054;52.100;5.116;2022-11-15T00:23:58;100605.19;;;7.10;100.00
51876;BME280;34054;52.100;5.116;2022-11-15T00:24:30;100619.38;;;7.17;100.00
51876;BME280;34054;52.100;5.116;2022-11-15T00:25:01;100608.94;;;7.20;100.00
51876;BME280;34054;52.100;5.116;2022-11-15T00:25:34;100611.38;;;7.22;100.00
51876;BME280;34054;52.100;5.116;2022-11-15T00:26:06;100598.84;;;7.16;100.00
51876;BME280;34054;52.100;5.116;2022-11-15T00:26:41;100615.09;;;7.33;100.00
51876;BME280;34054;52.100;5.116;2022-11-15T00:27:14;100602.44;;;7.33;100.00
51876;BME280;34054;52.100;5.116;2022-11-15T00:27:47;100602.19;;;7.35;100.00
51876;BME280;34054;52.100;5.116;2022-11-15T00:28:19;100612.47;;;7.38;100.00
51876;BME280;34054;52.100;5.116;2022-11-15T00:28:51;100604.97;;;7.40;100.00
51876;BME280;34054;52.100;5.116;2022-11-15T00:29:23;100604.16;;;7.39;100.00
51876;BME280;34054;52.100;5.116;2022-11-15T00:29:55;100602.56;;;7.27;100.00
51876;BME280;34054;52.100;5.116;2022-11-15T00:30:28;100604.88;;;7.35;100.00
51876;BME280;34054;52.100;5.116;2022-11-15T00:31:00;100592.69;;;7.32;100.00
51876;BME280;34054;52.100;5.116;2022-11-15T00:31:33;100595.78;;;7.24;100.00
51876;BME280;34054;52.100;5.116;2022-11-15T00:32:05;100594.59;;;7.20;100.00
51876;BME280;34054;52.100;5.116;2022-11-15T00:32:37;100589.91;;;7.15;100.00
51876;BME280;34054;52.100;5.116;2022-11-15T00:33:09;100587.53;;;7.19;100.00
51876;BME280;34054;52.100;5.116;2022-11-15T00:33:43;100585.81;;;7.13;100.00
51876;BME280;34054;52.100;5.116;2022-11-15T00:34:15;100585.47;;;7.09;100.00
51876;BME280;34054;52.100;5.116;2022-11-15T00:34:47;100591.25;;;7.01;100.00
51876;BME280;34054;52.100;5.116;2022-11-15T00:35:20;100582.91;;;7.02;100.00
51876;BME280;34054;52.100;5.116;2022-11-15T00:35:51;100589.13;;;7.03;100.00
51876;BME280;34054;52.100;5.116;2022-11-15T00:36:23;100588.50;;;7.13;100.00
51876;BME280;34054;52.100;5.116;2022-11-15T00:36:56;100571.63;;;7.05;100.00
51876;BME280;34054;52.100;5.116;2022-11-15T00:37:27;100589.19;;;7.20;100.00
51876;BME280;34054;52.100;5.116;2022-11-15T00:37:59;100582.31;;;7.12;100.00
51876;BME280;34054;52.100;5.116;2022-11-15T00:38:33;100589.81;;;7.10;100.00
51876;BME280;34054;52.100;5.116;2022-11-15T00:39:05;100587.22;;;7.15;100.00
51876;BME280;34054;52.100;5.116;2022-11-15T00:39:37;100583.44;;;7.16;100.00
51876;BME280;34054;52.100;5.116;2022-11-15T00:40:11;100589.66;;;7.29;100.00
51876;BME280;34054;52.100;5.116;2022-11-15T00:40:43;100588.56;;;7.30;100.00
51876;BME280;34054;52.100;5.116;2022-11-15T00:41:15;100593.81;;;7.36;100.00
51876;BME280;34054;52.100;5.116;2022-11-15T00:41:50;100590.53;;;7.34;100.00
51876;BME280;34054;52.100;5.116;2022-11-15T00:42:22;100571.28;;;7.31;100.00
51876;BME280;34054;52.100;5.116;2022-11-15T00:42:55;100588.03;;;7.45;100.00
51876;BME280;34054;52.100;5.116;2022-11-15T00:43:28;100592.03;;;7.42;100.00
51876;BME280;34054;52.100;5.116;2022-11-15T00:44:00;100592.75;;;7.37;100.00
51876;BME280;34054;52.100;5.116;2022-11-15T00:44:31;100590.88;;;7.38;100.00
51876;BME280;34054;52.100;5.116;2022-11-15T00:45:04;100594.88;;;7.35;100.00
51876;BME280;34054;52.100;5.116;2022-11-15T00:45:37;100595.47;;;7.37;100.00
51876;BME280;34054;52.100;5.116;2022-11-15T00:46:08;100592.28;;;7.41;100.00
51876;BME280;34054;52.100;5.116;2022-11-15T00:46:41;100594.16;;;7.40;100.00
51876;BME280;34054;52.100;5.116;2022-11-15T00:47:13;100586.59;;;7.54;100.00
51876;BME280;34054;52.100;5.116;2022-11-15T00:47:45;100596.41;;;7.60;100.00
51876;BME280;34054;52.100;5.116;2022-11-15T00:48:17;100599.44;;;7.64;100.00
51876;BME280;34054;52.100;5.116;2022-11-15T00:48:49;100600.34;;;7.69;100.00
51876;BME280;34054;52.100;5.116;2022-11-15T00:49:21;100585.06;;;7.75;100.00
51876;BME280;34054;52.100;5.116;2022-11-15T00:49:53;100582.50;;;7.68;100.00
51876;BME280;34054;52.100;5.116;2022-11-15T00:50:25;100589.00;;;7.84;100.00
51876;BME280;34054;52.100;5.116;2022-11-15T00:50:57;100574.38;;;7.68;100.00
51876;BME280;34054;52.100;5.116;2022-11-15T00:51:29;100600.03;;;7.66;100.00
51876;BME280;34054;52.100;5.116;2022-11-15T00:52:02;100592.44;;;7.63;100.00
51876;BME280;34054;52.100;5.116;2022-11-15T00:52:34;100584.78;;;7.60;100.00
51876;BME280;34054;52.100;5.116;2022-11-15T00:53:08;100584.34;;;7.51;100.00
51876;BME280;34054;52.100;5.116;2022-11-15T00:53:41;100577.00;;;7.46;100.00
51876;BME280;34054;52.100;5.116;2022-11-15T00:54:13;100584.72;;;7.54;100.00
51876;BME280;34054;52.100;5.116;2022-11-15T00:54:44;100576.81;;;7.53;100.00
51876;BME280;34054;52.100;5.116;2022-11-15T00:55:17;100581.75;;;7.56;100.00
51876;BME280;34054;52.100;5.116;2022-11-15T00:55:50;100546.03;;;7.37;100.00
51876;BME280;34054;52.100;5.116;2022-11-15T00:56:21;100535.03;;;7.27;100.00
51876;BME280;34054;52.100;5.116;2022-11-15T00:56:54;100581.09;;;7.49;100.00
51876;BME280;34054;52.100;5.116;2022-11-15T00:57:26;100574.84;;;7.48;100.00
51876;BME280;34054;52.100;5.116;2022-11-15T00:57:59;100574.03;;;7.48;100.00
51876;BME280;34054;52.100;5.116;2022-11-15T00:58:31;100571.28;;;7.31;100.00
51876;BME280;34054;52.100;5.116;2022-11-15T00:59:03;100587.09;;;7.39;100.00
51876;BME280;34054;52.100;5.116;2022-11-15T00:59:35;100554.34;;;7.35;100.00
51876;BME280;34054;52.100;5.116;2022-11-15T01:00:08;100578.94;;;7.51;100.00
51876;BME280;34054;52.100;5.116;2022-11-15T01:00:40;100572.41;;;7.47;100.00
51876;BME280;34054;52.100;5.116;2022-11-15T01:01:13;100577.81;;;7.47;100.00
51876;BME280;34054;52.100;5.116;2022-11-15T01:01:46;100559.09;;;7.28;100.00
51876;BME280;34054;52.100;5.116;2022-11-15T01:02:18;100565.88;;;7.31;100.00
51876;BME280;34054;52.100;5.116;2022-11-15T01:02:49;100574.66;;;7.38;100.00
51876;BME280;34054;52.100;5.116;2022-11-15T01:03:22;100560.59;;;7.36;100.00
51876;BME280;34054;52.100;5.116;2022-11-15T01:03:54;100572.53;;;7.40;100.00
51876;BME280;34054;52.100;5.116;2022-11-15T01:04:26;100579.25;;;7.37;100.00
51876;BME280;34054;52.100;5.116;2022-11-15T01:04:58;100575.88;;;7.30;100.00
51876;BME280;34054;52.100;5.116;2022-11-15T01:05:30;100575.63;;;7.32;100.00
51876;BME280;34054;52.100;5.116;2022-11-15T01:06:03;100567.78;;;7.30;100.00
51876;BME280;34054;52.100;5.116;2022-11-15T01:06:35;100574.81;;;7.31;100.00
51876;BME280;34054;52.100;5.116;2022-11-15T01:07:06;100566.84;;;7.25;100.00
51876;BME280;34054;52.100;5.116;2022-11-15T01:07:39;100574.00;;;7.31;100.00
51876;BME280;34054;52.100;5.116;2022-11-15T01:08:12;100568.13;;;7.34;100.00
51876;BME280;34054;52.100;5.116;2022-11-15T01:08:45;100576.56;;;7.37;100.00
51876;BME280;34054;52.100;5.116;2022-11-15T01:09:17;100571.97;;;7.38;100.00
51876;BME280;34054;52.100;5.116;2022-11-15T01:09:49;100565.28;;;7.41;100.00
51876;BME280;34054;52.100;5.116;2022-11-15T01:10:21;100567.47;;;7.44;100.00
51876;BME280;34054;52.100;5.116;2022-11-15T01:10:53;100567.97;;;7.41;100.00
51876;BME280;34054;52.100;5.116;2022-11-15T01:11:26;100574.84;;;7.48;100.00
51876;BME280;34054;52.100;5.116;2022-11-15T01:11:57;100551.19;;;7.38;100.00
51876;BME280;34054;52.100;5.116;2022-11-15T01:12:29;100551.13;;;7.50;100.00
51876;BME280;34054;52.100;5.116;2022-11-15T01:13:03;100549.47;;;7.49;100.00
51876;BME280;34054;52.100;5.116;2022-11-15T01:13:36;100572.19;;;7.65;100.00
51876;BME280;34054;52.100;5.116;2022-11-15T01:14:09;100567.38;;;7.67;100.00
51876;BME280;34054;52.100;5.116;2022-11-15T01:14:41;100569.81;;;7.69;100.00
51876;BME280;34054;52.100;5.116;2022-11-15T01:15:13;100557.03;;;7.64;100.00
51876;BME280;34054;52.100;5.116;2022-11-15T01:15:45;100555.31;;;7.58;100.00
51876;BME280;34054;52.100;5.116;2022-11-15T01:16:18;100569.38;;;7.60;100.00
51876;BME280;34054;52.100;5.116;2022-11-15T01:16:49;100559.47;;;7.49;100.00
51876;BME280;34054;52.100;5.116;2022-11-15T01:17:21;100562.25;;;7.54;100.00
51876;BME280;34054;52.100;5.116;2022-11-15T01:17:54;100553.56;;;7.52;100.00
51876;BME280;34054;52.100;5.116;2022-11-15T01:18:26;100559.47;;;7.66;100.00
51876;BME280;34054;52.100;5.116;2022-11-15T01:18:58;100560.81;;;7.63;100.00
51876;BME280;34054;52.100;5.116;2022-11-15T01:19:30;100553.22;;;7.48;100.00
51876;BME280;34054;52.100;5.116;2022-11-15T01:20:02;100557.44;;;7.56;100.00
51876;BME280;34054;52.100;5.116;2022-11-15T01:20:39;100543.66;;;7.41;100.00
51876;BME280;34054;52.100;5.116;2022-11-15T01:21:16;100555.13;;;7.48;100.00
51876;BME280;34054;52.100;5.116;2022-11-15T01:21:50;100561.69;;;7.52;100.00
51876;BME280;34054;52.100;5.116;2022-11-15T01:22:22;100558.75;;;7.53;100.00
51876;BME280;34054;52.100;5.116;2022-11-15T01:22:55;100565.44;;;7.51;100.00
51876;BME280;34054;52.100;5.116;2022-11-15T01:23:26;100564.97;;;7.54;100.00
51876;BME280;34054;52.100;5.116;2022-11-15T01:23:58;100572.09;;;7.60;100.00
51876;BME280;34054;52.100;5.116;2022-11-15T01:24:30;100570.13;;;7.55;100.00
51876;BME280;34054;52.100;5.116;2022-11-15T01:25:02;100564.31;;;7.64;100.00
51876;BME280;34054;52.100;5.116;2022-11-15T01:25:35;100568.13;;;7.51;100.00
51876;BME280;34054;52.100;5.116;2022-11-15T01:26:09;100570.84;;;7.51;100.00
51876;BME280;34054;52.100;5.116;2022-11-15T01:26:43;100574.06;;;7.65;100.00
51876;BME280;34054;52.100;5.116;2022-11-15T01:27:15;100569.50;;;7.65;100.00
51876;BME280;34054;52.100;5.116;2022-11-15T01:27:47;100565.22;;;7.69;100.00
51876;BME280;34054;52.100;5.116;2022-11-15T01:28:20;100564.88;;;7.66;100.00
51876;BME280;34054;52.100;5.116;2022-11-15T01:28:53;100568.75;;;7.70;100.00
51876;BME280;34054;52.100;5.116;2022-11-15T01:29:25;100562.28;;;7.71;100.00
51876;BME280;34054;52.100;5.116;2022-11-15T01:29:56;100569.91;;;7.74;100.00
51876;BME280;34054;52.100;5.116;2022-11-15T01:30:29;100568.03;;;7.75;100.00
51876;BME280;34054;52.100;5.116;2022-11-15T01:31:02;100562.28;;;7.71;100.00
51876;BME280;34054;52.100;5.116;2022-11-15T01:31:35;100563.84;;;7.67;100.00
51876;BME280;34054;52.100;5.116;2022-11-15T01:32:09;100570.63;;;7.69;100.00
51876;BME280;34054;52.100;5.116;2022-11-15T01:32:40;100542.94;;;7.62;100.00
51876;BME280;34054;52.100;5.116;2022-11-15T01:33:12;100559.66;;;7.76;100.00
51876;BME280;34054;52.100;5.116;2022-11-15T01:33:45;100557.22;;;7.75;100.00
51876;BME280;34054;52.100;5.116;2022-11-15T01:34:17;100556.63;;;7.73;100.00
51876;BME280;34054;52.100;5.116;2022-11-15T01:34:49;100557.44;;;7.56;100.00
51876;BME280;34054;52.100;5.116;2022-11-15T01:35:21;100552.94;;;7.62;100.00
51876;BME280;34054;52.100;5.116;2022-11-15T01:35:53;100557.50;;;7.61;100.00
51876;BME280;34054;52.100;5.116;2022-11-15T01:36:25;100558.69;;;7.65;100.00
51876;BME280;34054;52.100;5.116;2022-11-15T01:36:58;100559.00;;;7.69;100.00
51876;BME280;34054;52.100;5.116;2022-11-15T01:37:30;100558.28;;;7.74;100.00
51876;BME280;34054;52.100;5.116;2022-11-15T01:38:01;100556.81;;;7.83;100.00
51876;BME280;34054;52.100;5.116;2022-11-15T01:38:34;100557.34;;;7.85;100.00
51876;BME280;34054;52.100;5.116;2022-11-15T01:39:06;100560.41;;;7.89;100.00
51876;BME280;34054;52.100;5.116;2022-11-15T01:39:37;100560.16;;;7.90;100.00
51876;BME280;34054;52.100;5.116;2022-11-15T01:40:10;100549.34;;;7.90;100.00
51876;BME280;34054;52.100;5.116;2022-11-15T01:40:42;100554.81;;;7.95;100.00
51876;BME280;34054;52.100;5.116;2022-11-15T01:41:18;100536.97;;;7.94;100.00
51876;BME280;34054;52.100;5.116;2022-11-15T01:41:52;100544.25;;;7.94;100.00
51876;BME280;34054;52.100;5.116;2022-11-15T01:42:24;100550.16;;;7.91;100.00
51876;BME280;34054;52.100;5.116;2022-11-15T01:42:56;100546.53;;;7.85;100.00
51876;BME280;34054;52.100;5.116;2022-11-15T01:43:31;100551.63;;;7.81;100.00
51876;BME280;34054;52.100;5.116;2022-11-15T01:45:25;100550.16;;;7.74;100.00
51876;BME280;34054;52.100;5.116;2022-11-15T01:46:01;100529.34;;;7.57;100.00
51876;BME280;34054;52.100;5.116;2022-11-15T01:46:37;100546.28;;;7.69;100.00
51876;BME280;34054;52.100;5.116;2022-11-15T01:47:13;100553.44;;;7.76;100.00
51876;BME280;34054;52.100;5.116;2022-11-15T01:47:52;100550.16;;;7.74;100.00
51876;BME280;34054;52.100;5.116;2022-11-15T01:48:31;100537.53;;;7.62;100.00
51876;BME280;34054;52.100;5.116;2022-11-15T01:49:11;100555.78;;;7.72;100.00
51876;BME280;34054;52.100;5.116;2022-11-15T01:49:51;100556.38;;;7.74;100.00
51876;BME280;34054;52.100;5.116;2022-11-15T01:50:31;100554.00;;;7.78;100.00
51876;BME280;34054;52.100;5.116;2022-11-15T01:51:06;100549.19;;;7.80;100.00
51876;BME280;34054;52.100;5.116;2022-11-15T01:51:42;100541.00;;;7.75;100.00
51876;BME280;34054;52.100;5.116;2022-11-15T01:52:17;100548.19;;;7.86;100.00
51876;BME280;34054;52.100;5.116;2022-11-15T01:52:52;100554.66;;;7.85;100.00
51876;BME280;34054;52.100;5.116;2022-11-15T01:53:26;100542.78;;;7.86;100.00
51876;BME280;34054;52.100;5.116;2022-11-15T01:54:00;100547.97;;;7.88;100.00
51876;BME280;34054;52.100;5.116;2022-11-15T01:54:42;100548.19;;;7.86;100.00
51876;BME280;34054;52.100;5.116;2022-11-15T01:55:20;100533.53;;;7.82;100.00
51876;BME280;34054;52.100;5.116;2022-11-15T01:56:02;100542.38;;;7.94;100.00
51876;BME280;34054;52.100;5.116;2022-11-15T01:56:40;100549.31;;;8.07;100.00
51876;BME280;34054;52.100;5.116;2022-11-15T01:57:17;100545.50;;;8.03;100.00
51876;BME280;34054;52.100;5.116;2022-11-15T01:57:51;100547.38;;;8.02;100.00
51876;BME280;34054;52.100;5.116;2022-11-15T01:58:28;100551.28;;;8.12;100.00
51876;BME280;34054;52.100;5.116;2022-11-15T01:59:03;100554.09;;;8.17;100.00
51876;BME280;34054;52.100;5.116;2022-11-15T01:59:38;100532.28;;;8.07;100.00
51876;BME280;34054;52.100;5.116;2022-11-15T02:00:14;100540.00;;;8.15;100.00
51876;BME280;34054;52.100;5.116;2022-11-15T02:00:46;100519.44;;;7.97;100.00
51876;BME280;34054;52.100;5.116;2022-11-15T02:01:21;100544.81;;;8.13;100.00
51876;BME280;34054;52.100;5.116;2022-11-15T02:01:55;100538.84;;;8.11;100.00
51876;BME280;34054;52.100;5.116;2022-11-15T02:02:27;100547.53;;;8.13;100.00
51876;BME280;34054;52.100;5.116;2022-11-15T02:03:00;100541.69;;;8.21;100.00
51876;BME280;34054;52.100;5.116;2022-11-15T02:03:39;100529.09;;;8.10;100.00
51876;BME280;34054;52.100;5.116;2022-11-15T02:04:20;100538.41;;;8.19;100.00
51876;BME280;34054;52.100;5.116;2022-11-15T02:04:56;100538.94;;;8.16;100.00
51876;BME280;34054;52.100;5.116;2022-11-15T02:05:28;100537.75;;;8.12;100.00
51876;BME280;34054;52.100;5.116;2022-11-15T02:06:02;100529.75;;;8.00;100.00
51876;BME280;34054;52.100;5.116;2022-11-15T02:06:38;100528.63;;;7.96;100.00
51876;BME280;34054;52.100;5.116;2022-11-15T02:07:14;100526.56;;;7.86;100.00
51876;BME280;34054;52.100;5.116;2022-11-15T02:07:48;100536.88;;;7.89;100.00
51876;BME280;34054;52.100;5.116;2022-11-15T02:08:21;100521.16;;;7.86;100.00
51876;BME280;34054;52.100;5.116;2022-11-15T02:08:54;100521.47;;;7.90;100.00
51876;BME280;34054;52.100;5.116;2022-11-15T02:09:27;100528.28;;;8.09;100.00
51876;BME280;34054;52.100;5.116;2022-11-15T02:10:03;100535.91;;;8.12;100.00
51876;BME280;34054;52.100;5.116;2022-11-15T02:10:39;100526.63;;;8.08;100.00
51876;BME280;34054;52.100;5.116;2022-11-15T02:11:10;100528.44;;;8.02;100.00
51876;BME280;34054;52.100;5.116;2022-11-15T02:11:43;100527.31;;;7.98;100.00
51876;BME280;34054;52.100;5.116;2022-11-15T02:12:20;100519.66;;;7.95;100.00
51876;BME280;34054;52.100;5.116;2022-11-15T02:12:54;100522.38;;;7.95;100.00
51876;BME280;34054;52.100;5.116;2022-11-15T02:13:30;100512.41;;;7.96;100.00
51876;BME280;34054;52.100;5.116;2022-11-15T02:14:03;100527.19;;;8.10;100.00
51876;BME280;34054;52.100;5.116;2022-11-15T02:14:37;100537.03;;;8.16;100.00
51876;BME280;34054;52.100;5.116;2022-11-15T02:15:11;100517.28;;;8.16;100.00
51876;BME280;34054;52.100;5.116;2022-11-15T02:15:53;100528.09;;;8.16;100.00
51876;BME280;34054;52.100;5.116;2022-11-15T02:16:41;100515.63;;;8.15;100.00
51876;BME280;34054;52.100;5.116;2022-11-15T02:17:33;100530.28;;;8.36;100.00
51876;BME280;34054;52.100;5.116;2022-11-15T02:18:27;100514.72;;;8.26;100.00
51876;BME280;34054;52.100;5.116;2022-11-15T02:19:25;100510.59;;;8.24;100.00
51876;BME280;34054;52.100;5.116;2022-11-15T02:20:33;100511.44;;;8.24;100.00
51876;BME280;34054;52.100;5.116;2022-11-15T02:21:22;100514.22;;;8.29;100.00
51876;BME280;34054;52.100;5.116;2022-11-15T02:22:11;100499.31;;;8.27;100.00
51876;BME280;34054;52.100;5.116;2022-11-15T02:23:14;100509.94;;;8.33;100.00
51876;BME280;34054;52.100;5.116;2022-11-15T02:24:31;100505.94;;;8.19;100.00
51876;BME280;34054;52.100;5.116;2022-11-15T02:25:37;100502.91;;;8.32;100.00
51876;BME280;34054;52.100;5.116;2022-11-15T02:26:28;100507.81;;;8.36;100.00
51876;BME280;34054;52.100;5.116;2022-11-15T02:27:32;100490.25;;;8.38;100.00
51876;BME280;34054;52.100;5.116;2022-11-15T02:28:44;100493.38;;;8.47;100.00
51876;BME280;34054;52.100;5.116;2022-11-15T02:29:36;100501.00;;;8.50;100.00
51876;BME280;34054;52.100;5.116;2022-11-15T02:30:30;100490.00;;;8.40;100.00
51876;BME280;34054;52.100;5.116;2022-11-15T02:31:13;100498.06;;;8.35;100.00
51876;BME280;34054;52.100;5.116;2022-11-15T02:31:56;100485.47;;;8.45;100.00
51876;BME280;34054;52.100;5.116;2022-11-15T02:32:39;100494.56;;;8.56;100.00
51876;BME280;34054;52.100;5.116;2022-11-15T02:33:26;100490.16;;;8.50;100.00
51876;BME280;34054;52.100;5.116;2022-11-15T02:34:13;100479.41;;;8.55;100.00
51876;BME280;34054;52.100;5.116;2022-11-15T02:35:00;100486.56;;;8.67;100.00
51876;BME280;34054;52.100;5.116;2022-11-15T02:35:46;100498.59;;;8.54;100.00
51876;BME280;34054;52.100;5.116;2022-11-15T02:36:33;100459.16;;;8.41;100.00
51876;BME280;34054;52.100;5.116;2022-11-15T02:37:16;100482.28;;;8.71;100.00
51876;BME280;34054;52.100;5.116;2022-11-15T02:37:59;100482.28;;;8.71;100.00
51876;BME280;34054;52.100;5.116;2022-11-15T02:38:44;100481.16;;;8.67;100.00
51876;BME280;34054;52.100;5.116;2022-11-15T02:39:28;100486.84;;;8.65;100.00
51876;BME280;34054;52.100;5.116;2022-11-15T02:40:12;100476.31;;;8.69;100.00
51876;BME280;34054;52.100;5.116;2022-11-15T02:40:59;100462.97;;;8.62;100.00
51876;BME280;34054;52.100;5.116;2022-11-15T02:41:39;100468.50;;;8.72;100.00
51876;BME280;34054;52.100;5.116;2022-11-15T02:42:19;100479.47;;;8.83;100.00
51876;BME280;34054;52.100;5.116;2022-11-15T02:43:19;100473.09;;;8.72;100.00
51876;BME280;34054;52.100;5.116;2022-11-15T02:44:17;100475.59;;;8.78;100.00
51876;BME280;34054;52.100;5.116;2022-11-15T02:44:57;100457.16;;;8.75;100.00
51876;BME280;34054;52.100;5.116;2022-11-15T02:45:39;100468.94;;;8.86;100.00
51876;BME280;34054;52.100;5.116;2022-11-15T02:46:22;100460.91;;;8.96;100.00
51876;BME280;34054;52.100;5.116;2022-11-15T02:47:16;100459.53;;;8.94;100.00
51876;BME280;34054;52.100;5.116;2022-11-15T02:47:52;100457.56;;;8.89;100.00
51876;BME280;34054;52.100;5.116;2022-11-15T02:48:26;100465.47;;;8.91;100.00
51876;BME280;34054;52.100;5.116;2022-11-15T02:48:59;100468.72;;;8.93;100.00
51876;BME280;34054;52.100;5.116;2022-11-15T02:49:33;100472.31;;;8.99;100.00
51876;BME280;34054;52.100;5.116;2022-11-15T02:50:08;100464.16;;;8.99;100.00
51876;BME280;34054;52.100;5.116;2022-11-15T02:50:43;100460.19;;;9.06;100.00
51876;BME280;34054;52.100;5.116;2022-11-15T02:51:16;100457.50;;;9.06;100.00
51876;BME280;34054;52.100;5.116;2022-11-15T02:51:50;100466.69;;;9.05;100.00
51876;BME280;34054;52.100;5.116;2022-11-15T02:52:25;100466.69;;;9.05;100.00
51876;BME280;34054;52.100;5.116;2022-11-15T02:52:57;100460.81;;;9.14;100.00
51876;BME280;34054;52.100;5.116;2022-11-15T02:53:30;100464.69;;;9.23;100.00
51876;BME280;34054;52.100;5.116;2022-11-15T02:54:02;100454.16;;;9.26;100.00
51876;BME280;34054;52.100;5.116;2022-11-15T02:54:34;100446.88;;;9.05;100.00
51876;BME280;34054;52.100;5.116;2022-11-15T02:55:26;100461.44;;;9.26;100.00
51876;BME280;34054;52.100;5.116;2022-11-15T02:56:02;100463.78;;;9.12;100.00
51876;BME280;34054;52.100;5.116;2022-11-15T02:56:35;100457.78;;;9.10;100.00
51876;BME280;34054;52.100;5.116;2022-11-15T02:57:12;100462.47;;;9.20;100.00
51876;BME280;34054;52.100;5.116;2022-11-15T02:57:51;100464.41;;;9.24;100.00
51876;BME280;34054;52.100;5.116;2022-11-15T02:59:00;100462.38;;;9.37;100.00
51876;BME280;34054;52.100;5.116;2022-11-15T03:00:00;100458.50;;;9.27;100.00
51876;BME280;34054;52.100;5.116;2022-11-15T03:00:44;100468.09;;;9.40;100.00
51876;BME280;34054;52.100;5.116;2022-11-15T03:01:32;100461.53;;;9.36;100.00
51876;BME280;34054;52.100;5.116;2022-11-15T03:02:28;100462.50;;;9.52;100.00
51876;BME280;34054;52.100;5.116;2022-11-15T03:03:38;100467.56;;;9.43;100.00
51876;BME280;34054;52.100;5.116;2022-11-15T03:04:28;100477.56;;;9.38;100.00
51876;BME280;34054;52.100;5.116;2022-11-15T03:05:18;100462.41;;;9.42;100.00
51876;BME280;34054;52.100;5.116;2022-11-15T03:06:02;100452.94;;;9.45;100.00
51876;BME280;34054;52.100;5.116;2022-11-15T03:06:42;100455.13;;;9.48;100.00
51876;BME280;34054;52.100;5.116;2022-11-15T03:07:26;100462.38;;;9.37;100.00
51876;BME280;34054;52.100;5.116;2022-11-15T03:08:07;100467.53;;;9.38;100.00
51876;BME280;34054;52.100;5.116;2022-11-15T03:08:53;100462.59;;;9.35;100.00
51876;BME280;34054;52.100;5.116;2022-11-15T03:09:37;100467.84;;;9.47;100.00
51876;BME280;34054;52.100;5.116;2022-11-15T03:10:22;100463.69;;;9.34;100.00